Durham, Maine
Current Conditions -  °F | °C
As of 8:35 AM on Wednesday 22 Oct 2014 (Local Time) from KLEW Reporting Station
Overcast Overcast  
Wind Chill: 40°   Ceiling: 4100
Heat Index: 46°   Visibility: 10mi
Dew Point: 43°   Wind: 15mph
Humidity: 87%   Direction: 20°NNE
Pressure: 30.15"   Gusts: NA
Location:  44.03°N, 70.1°W
Report Text: KLEW 221235Z AUTO 02013KT 10SM FEW020 OVC041 08/06 A3015 RMK AO1
Loading
Personal Weather Stations






























Interactive Weather Map
Tropical Storm Tracking
New forecast layout! Learn more

10-Day Weather Forecast

Advertisements
Track Severe Weather on mobile